createdAt,value
2022-08-17T00:00:42.746Z,49.40
2022-08-17T00:03:17.460Z,49.50
2022-08-17T00:05:49.484Z,49.70
2022-08-17T00:08:20.564Z,49.80
2022-08-17T00:10:49.997Z,49.80
2022-08-17T00:13:23.878Z,50.00
2022-08-17T00:15:55.586Z,50.10
2022-08-17T00:19:01.829Z,50.30
2022-08-17T00:21:23.644Z,50.50
2022-08-17T00:23:53.912Z,51.10
2022-08-17T00:26:44.598Z,50.60
2022-08-17T00:29:19.451Z,50.70
2022-08-17T00:31:50.695Z,50.70
2022-08-17T00:34:21.787Z,50.70
2022-08-17T00:36:51.209Z,50.50
2022-08-17T00:39:20.735Z,50.60
2022-08-17T00:41:49.856Z,50.60
2022-08-17T00:44:18.939Z,50.80
2022-08-17T00:46:48.900Z,50.70
2022-08-17T00:49:23.743Z,50.80
2022-08-17T00:52:04.992Z,50.80
2022-08-17T00:54:44.553Z,50.90
2022-08-17T00:57:20.358Z,51.00
2022-08-17T01:00:01.956Z,51.10
2022-08-17T01:02:40.466Z,51.00
2022-08-17T01:05:33.533Z,51.00
2022-08-17T01:08:11.096Z,51.00
2022-08-17T01:10:59.917Z,51.00
2022-08-17T01:13:41.027Z,51.20
2022-08-17T01:16:16.934Z,51.30
2022-08-17T01:18:49.340Z,51.30
2022-08-17T01:21:28.648Z,51.20
2022-08-17T01:23:59.392Z,51.20
2022-08-17T01:26:29.882Z,51.40
2022-08-17T01:28:59.159Z,51.40
2022-08-17T01:31:33.196Z,51.30
2022-08-17T01:34:07.518Z,51.30
2022-08-17T01:36:37.879Z,51.50
2022-08-17T01:39:17.191Z,51.50
2022-08-17T01:41:48.203Z,51.60
2022-08-17T01:44:17.947Z,51.50
2022-08-17T01:46:47.063Z,51.50
2022-08-17T01:49:16.220Z,51.50
2022-08-17T01:51:45.636Z,51.70
2022-08-17T01:54:18.279Z,51.70
2022-08-17T01:56:52.269Z,51.50
2022-08-17T01:59:21.987Z,51.60
2022-08-17T02:01:51.393Z,51.50
2022-08-17T02:04:20.457Z,51.40
2022-08-17T02:06:53.679Z,51.60
2022-08-17T02:09:26.264Z,51.40
2022-08-17T02:12:05.802Z,51.40
2022-08-17T02:14:52.967Z,51.30
2022-08-17T02:17:22.018Z,51.20
2022-08-17T02:19:51.155Z,51.20
2022-08-17T02:22:20.853Z,51.30
2022-08-17T02:25:00.983Z,51.40
2022-08-17T02:27:31.701Z,51.40
2022-08-17T02:30:01.691Z,51.40
2022-08-17T02:32:34.316Z,51.50
2022-08-17T02:35:04.774Z,51.60
2022-08-17T02:37:34.611Z,51.70
2022-08-17T02:40:07.218Z,51.60
2022-08-17T02:42:39.874Z,51.60
2022-08-17T02:45:16.492Z,51.60
2022-08-17T02:47:47.072Z,51.80
2022-08-17T02:50:21.696Z,52.40
2022-08-17T02:52:55.246Z,52.00
2022-08-17T02:55:34.543Z,52.00
2022-08-17T02:58:03.974Z,52.20
2022-08-17T03:00:34.994Z,52.30
2022-08-17T03:03:05.837Z,52.40
2022-08-17T03:05:37.160Z,52.40
2022-08-17T03:08:12.966Z,52.50
2022-08-17T03:10:45.990Z,52.60
2022-08-17T03:13:15.927Z,52.70
2022-08-17T03:15:47.114Z,52.80
2022-08-17T03:18:24.326Z,52.90
2022-08-17T03:20:56.915Z,53.10
2022-08-17T03:23:27.501Z,53.00
2022-08-17T03:26:00.734Z,53.10
2022-08-17T03:28:29.971Z,53.00
2022-08-17T03:30:58.859Z,53.00
2022-08-17T03:33:27.957Z,53.10
2022-08-17T03:35:57.404Z,53.10
2022-08-17T03:38:26.894Z,53.00
2022-08-17T03:40:59.767Z,52.90
2022-08-17T03:43:33.093Z,52.90
2022-08-17T03:46:28.310Z,53.00
2022-08-17T03:49:23.133Z,53.00
2022-08-17T03:52:10.318Z,53.00
2022-08-17T03:54:57.514Z,53.00
2022-08-17T03:57:26.768Z,53.00
2022-08-17T03:59:57.702Z,53.10
2022-08-17T04:02:32.193Z,53.10
2022-08-17T04:05:02.510Z,53.10
2022-08-17T04:07:32.782Z,53.00
2022-08-17T04:10:02.045Z,53.10
2022-08-17T04:12:44.984Z,53.20
2022-08-17T04:15:15.905Z,53.40
2022-08-17T04:17:45.791Z,53.40
2022-08-17T04:20:16.660Z,53.40
2022-08-17T04:22:57.717Z,53.40
2022-08-17T04:25:28.190Z,53.50
2022-08-17T04:27:57.921Z,53.50
2022-08-17T04:30:30.306Z,53.60
2022-08-17T04:33:05.806Z,53.80
2022-08-17T04:35:38.738Z,53.80
2022-08-17T04:38:08.759Z,53.90
2022-08-17T04:40:55.826Z,53.90
2022-08-17T04:43:26.452Z,53.70
2022-08-17T04:45:59.392Z,53.80
2022-08-17T04:48:36.129Z,53.70
2022-08-17T04:51:11.156Z,53.50
2022-08-17T04:53:42.067Z,53.50
2022-08-17T04:56:16.779Z,54.00
2022-08-17T04:58:47.794Z,53.50
2022-08-17T05:01:23.960Z,53.30
2022-08-17T05:03:54.182Z,53.40
2022-08-17T05:06:23.972Z,53.60
2022-08-17T05:08:53.738Z,53.50
2022-08-17T05:11:23.394Z,53.40
2022-08-17T05:13:52.423Z,53.50
2022-08-17T05:16:24.196Z,53.50
2022-08-17T05:18:54.066Z,54.10
2022-08-17T05:21:24.431Z,53.60
2022-08-17T05:23:55.007Z,53.80
2022-08-17T05:26:27.518Z,53.70
2022-08-17T05:29:03.018Z,53.70
2022-08-17T05:31:33.548Z,53.70
2022-08-17T05:34:02.380Z,53.70
2022-08-17T05:36:42.603Z,53.50
2022-08-17T05:39:16.439Z,53.50
2022-08-17T05:41:49.447Z,53.30
2022-08-17T05:44:18.524Z,53.20
2022-08-17T05:46:51.669Z,53.10
2022-08-17T05:49:25.737Z,53.10
2022-08-17T05:52:19.851Z,53.00
2022-08-17T05:55:03.047Z,52.90
2022-08-17T05:57:42.393Z,52.90
2022-08-17T06:00:26.461Z,52.70
2022-08-17T06:03:16.293Z,52.70
2022-08-17T06:06:00.532Z,52.60
2022-08-17T06:08:36.280Z,52.70
2022-08-17T06:11:19.772Z,52.50
2022-08-17T06:14:19.631Z,53.20
2022-08-17T06:16:52.611Z,52.40
2022-08-17T06:19:28.693Z,52.30
2022-08-17T06:21:59.150Z,52.50
2022-08-17T06:24:34.864Z,52.40
2022-08-17T06:27:13.425Z,52.10
2022-08-17T06:29:50.708Z,51.80
2022-08-17T06:32:20.054Z,51.50
2022-08-17T06:34:50.783Z,52.20
2022-08-17T06:37:39.043Z,51.90
2022-08-17T06:40:45.467Z,51.20
2022-08-17T06:43:28.039Z,51.20
2022-08-17T06:46:02.157Z,51.20
2022-08-17T06:48:39.527Z,51.10
2022-08-17T06:51:18.576Z,51.20
2022-08-17T06:53:53.696Z,50.90
2022-08-17T06:56:53.071Z,50.90
2022-08-17T06:59:55.257Z,51.10
2022-08-17T07:02:51.973Z,51.40
2022-08-17T07:05:25.307Z,51.00
2022-08-17T07:08:04.110Z,51.20
2022-08-17T07:10:39.380Z,50.90
2022-08-17T07:13:31.065Z,50.70
2022-08-17T07:16:08.786Z,50.00
2022-08-17T07:18:38.282Z,50.10
2022-08-17T07:21:17.940Z,49.80
2022-08-17T07:24:04.334Z,49.50
2022-08-17T07:26:33.378Z,49.20
2022-08-17T07:29:03.403Z,49.40
2022-08-17T07:31:33.739Z,49.40
2022-08-17T07:34:07.977Z,49.20
2022-08-17T07:36:37.056Z,49.20
2022-08-17T07:39:07.559Z,49.70
2022-08-17T07:41:53.098Z,49.50
2022-08-17T07:44:27.222Z,49.20
2022-08-17T07:47:14.503Z,49.10
2022-08-17T07:49:45.971Z,48.90
2022-08-17T07:52:48.379Z,48.60
2022-08-17T07:55:32.662Z,48.40
2022-08-17T07:58:03.457Z,48.40
2022-08-17T08:00:33.654Z,48.40
2022-08-17T08:03:14.766Z,48.20
2022-08-17T08:05:57.689Z,48.10
2022-08-17T08:08:31.047Z,47.80
2022-08-17T08:11:08.911Z,47.90
2022-08-17T08:13:42.882Z,47.50
2022-08-17T08:16:24.242Z,47.50
2022-08-17T08:18:57.539Z,47.70
2022-08-17T08:21:38.034Z,47.30
2022-08-17T08:24:30.816Z,47.10
2022-08-17T08:27:11.731Z,46.80
2022-08-17T08:29:50.208Z,45.90
2022-08-17T08:32:33.388Z,45.60
2022-08-17T08:35:07.728Z,45.80
2022-08-17T08:37:48.026Z,45.50
2022-08-17T08:40:43.675Z,45.40
2022-08-17T08:43:23.019Z,45.50
2022-08-17T08:45:59.614Z,45.30
2022-08-17T08:49:06.468Z,45.30
2022-08-17T08:51:48.095Z,44.40
2022-08-17T08:54:34.440Z,44.20
2022-08-17T08:57:26.786Z,43.60
2022-08-17T09:00:14.416Z,42.70
2022-08-17T09:03:09.652Z,43.20
2022-08-17T09:06:00.234Z,43.00
2022-08-17T09:08:35.462Z,42.90
2022-08-17T09:11:08.427Z,42.60
2022-08-17T09:13:45.896Z,42.00
2022-08-17T09:16:30.684Z,41.50
2022-08-17T09:19:04.986Z,41.20
2022-08-17T09:21:47.884Z,41.60
2022-08-17T09:24:24.171Z,41.70
2022-08-17T09:26:59.403Z,41.50
2022-08-17T09:29:35.037Z,41.10
2022-08-17T09:32:16.054Z,40.60
2022-08-17T09:34:50.709Z,40.30
2022-08-17T09:37:28.429Z,40.10
2022-08-17T09:40:09.486Z,40.20
2022-08-17T09:42:46.444Z,40.00
2022-08-17T09:45:27.555Z,40.00
2022-08-17T09:48:05.249Z,39.10
2022-08-17T09:51:03.249Z,39.60
2022-08-17T09:53:32.065Z,39.60
2022-08-17T09:56:15.131Z,39.90
2022-08-17T09:59:00.433Z,39.50
2022-08-17T10:01:39.939Z,39.10
2022-08-17T10:04:33.179Z,39.50
2022-08-17T10:07:08.243Z,38.90
2022-08-17T10:09:48.407Z,39.10
2022-08-17T10:12:30.203Z,38.80
2022-08-17T10:15:27.657Z,38.40
2022-08-17T10:18:33.114Z,38.80
2022-08-17T10:21:26.150Z,38.10
2022-08-17T10:24:21.956Z,38.10
2022-08-17T10:26:56.372Z,38.30
2022-08-17T10:29:30.475Z,37.90
2022-08-17T10:32:32.289Z,38.00
2022-08-17T10:35:18.964Z,37.60
2022-08-17T10:38:09.596Z,37.60
2022-08-17T10:40:47.728Z,38.00
2022-08-17T10:43:37.183Z,37.60
2022-08-17T10:46:31.691Z,37.80
2022-08-17T10:49:33.969Z,37.90
2022-08-17T10:52:07.940Z,37.30
2022-08-17T10:54:49.170Z,37.10
2022-08-17T10:57:42.236Z,37.10
2022-08-17T11:00:29.619Z,36.70
2022-08-17T11:03:00.111Z,37.00
2022-08-17T11:05:58.809Z,36.60
2022-08-17T11:09:03.817Z,36.40
2022-08-17T11:11:47.534Z,36.90
2022-08-17T11:14:47.229Z,36.50
2022-08-17T11:17:37.599Z,36.40
2022-08-17T11:20:30.222Z,36.10
2022-08-17T11:23:30.462Z,35.60
2022-08-17T11:26:03.975Z,35.00
2022-08-17T11:28:46.736Z,35.90
2022-08-17T11:31:38.269Z,35.90
2022-08-17T11:34:18.588Z,35.60
2022-08-17T11:37:05.013Z,35.30
2022-08-17T11:40:01.635Z,35.50
2022-08-17T11:42:40.811Z,35.40
2022-08-17T11:45:33.128Z,34.60
2022-08-17T11:48:28.416Z,35.80
2022-08-17T11:51:25.831Z,35.00
2022-08-17T11:54:31.776Z,34.40
2022-08-17T11:57:00.448Z,34.80
2022-08-17T11:59:59.947Z,35.00
2022-08-17T12:03:14.235Z,34.50
2022-08-17T12:05:45.405Z,34.60
2022-08-17T12:08:20.033Z,33.50
2022-08-17T12:10:56.988Z,33.80
2022-08-17T12:13:38.522Z,33.00
2022-08-17T12:16:09.831Z,33.30
2022-08-17T12:18:41.958Z,33.90
2022-08-17T12:21:28.752Z,34.00
2022-08-17T12:24:06.485Z,33.90
2022-08-17T12:26:37.320Z,33.60
2022-08-17T12:29:38.915Z,33.90
2022-08-17T12:32:03.399Z,34.30
2022-08-17T12:34:37.557Z,34.40
2022-08-17T12:37:14.564Z,32.30
2022-08-17T12:39:52.428Z,32.70
2022-08-17T12:42:30.250Z,32.90
2022-08-17T12:44:59.790Z,33.40
2022-08-17T12:47:30.117Z,33.50
2022-08-17T12:50:29.134Z,33.40
2022-08-17T12:53:02.445Z,32.60
2022-08-17T12:55:38.840Z,33.00
2022-08-17T12:58:14.479Z,33.40
2022-08-17T13:00:49.510Z,32.70
2022-08-17T13:03:22.862Z,32.90
2022-08-17T13:06:00.572Z,32.10
2022-08-17T13:08:33.138Z,32.30
2022-08-17T13:11:05.319Z,32.20
2022-08-17T13:13:37.023Z,32.40
2022-08-17T13:16:09.526Z,31.90
2022-08-17T13:18:42.770Z,31.90
2022-08-17T13:21:27.019Z,31.30
2022-08-17T13:24:00.448Z,31.10
2022-08-17T13:26:33.952Z,30.80
2022-08-17T13:29:06.540Z,30.80
2022-08-17T13:31:51.912Z,30.90
2022-08-17T13:34:49.587Z,30.60
2022-08-17T13:37:34.086Z,31.20
2022-08-17T13:40:32.258Z,29.80
2022-08-17T13:43:03.309Z,29.70
2022-08-17T13:45:50.894Z,29.70
2022-08-17T13:48:28.955Z,29.30
2022-08-17T13:51:27.478Z,30.00
2022-08-17T13:54:01.059Z,30.60
2022-08-17T13:56:46.597Z,30.70
2022-08-17T13:59:52.552Z,30.00
2022-08-17T14:02:20.228Z,29.60
2022-08-17T14:04:50.272Z,29.80
2022-08-17T14:07:30.768Z,30.00
2022-08-17T14:10:01.878Z,30.00
2022-08-17T14:12:34.084Z,30.50
2022-08-17T14:15:03.549Z,30.90
2022-08-17T14:17:38.447Z,30.50
2022-08-17T14:20:10.926Z,30.90
2022-08-17T14:22:44.126Z,30.60
2022-08-17T14:25:16.364Z,30.00
2022-08-17T14:27:52.996Z,30.30
2022-08-17T14:30:25.588Z,30.80
2022-08-17T14:32:57.960Z,30.90
2022-08-17T14:35:29.303Z,30.60
2022-08-17T14:37:59.126Z,30.50
2022-08-17T14:40:29.331Z,30.00
2022-08-17T14:43:01.276Z,30.10
2022-08-17T14:45:33.277Z,30.20
2022-08-17T14:48:05.813Z,30.40
2022-08-17T14:50:36.130Z,30.50
2022-08-17T14:53:06.659Z,30.60
2022-08-17T14:55:39.681Z,30.90
2022-08-17T14:58:10.418Z,30.80
2022-08-17T15:00:41.254Z,31.10
2022-08-17T15:03:11.375Z,31.00
2022-08-17T15:05:40.642Z,31.20
2022-08-17T15:08:09.700Z,31.30
2022-08-17T15:10:39.128Z,31.70
2022-08-17T15:13:18.001Z,31.80
2022-08-17T15:15:47.794Z,31.80
2022-08-17T15:18:17.423Z,31.70
2022-08-17T15:20:48.655Z,31.40
2022-08-17T15:23:19.664Z,31.30
2022-08-17T15:25:49.827Z,31.50
2022-08-17T15:28:22.697Z,31.40
2022-08-17T15:30:52.075Z,31.50
2022-08-17T15:33:23.790Z,31.70
2022-08-17T15:35:53.490Z,32.00
2022-08-17T15:38:23.414Z,31.90
2022-08-17T15:40:53.774Z,31.80
2022-08-17T15:43:27.969Z,31.80
2022-08-17T15:46:00.944Z,32.10
2022-08-17T15:48:41.906Z,32.20
2022-08-17T15:51:14.333Z,32.10
2022-08-17T15:53:45.155Z,32.00
2022-08-17T15:56:15.451Z,32.20
2022-08-17T15:58:47.627Z,32.30
2022-08-17T16:02:21.538Z,32.30
2022-08-17T16:04:26.881Z,32.20
2022-08-17T16:06:59.904Z,32.10
2022-08-17T16:09:29.596Z,32.00
2022-08-17T16:12:08.740Z,32.20
2022-08-17T16:14:38.923Z,32.10
2022-08-17T16:17:39.143Z,32.20
2022-08-17T16:19:59.091Z,32.20
2022-08-17T16:22:34.568Z,32.20
2022-08-17T16:25:05.549Z,32.10
2022-08-17T16:27:35.654Z,32.10
2022-08-17T16:30:07.570Z,32.10
2022-08-17T16:32:37.163Z,32.00
2022-08-17T16:35:08.768Z,32.00
2022-08-17T16:37:37.781Z,32.70
2022-08-17T16:40:08.022Z,32.10
2022-08-17T16:42:39.549Z,32.20
2022-08-17T16:45:13.979Z,32.30
2022-08-17T16:47:43.597Z,32.00
2022-08-17T16:50:15.820Z,31.90
2022-08-17T16:52:45.715Z,31.90
2022-08-17T16:55:15.496Z,32.20
2022-08-17T16:57:50.019Z,32.00
2022-08-17T17:00:21.478Z,32.10
2022-08-17T17:02:50.773Z,32.00
2022-08-17T17:05:41.790Z,31.90
2022-08-17T17:08:14.324Z,31.90
2022-08-17T17:10:46.549Z,32.00
2022-08-17T17:13:20.290Z,32.50
2022-08-17T17:15:58.724Z,31.90
2022-08-17T17:18:39.203Z,32.10
2022-08-17T17:21:14.326Z,32.30
2022-08-17T17:23:54.515Z,32.20
2022-08-17T17:26:39.581Z,32.70
2022-08-17T17:29:27.731Z,32.90
2022-08-17T17:32:09.466Z,33.10
2022-08-17T17:34:41.638Z,33.30
2022-08-17T17:37:15.762Z,33.50
2022-08-17T17:39:49.783Z,33.70
2022-08-17T17:42:23.099Z,33.80
2022-08-17T17:45:00.274Z,33.90
2022-08-17T17:47:34.680Z,34.00
2022-08-17T17:50:06.323Z,34.10
2022-08-17T17:52:45.389Z,34.20
2022-08-17T17:55:32.802Z,34.20
2022-08-17T17:58:16.950Z,34.40
2022-08-17T18:00:54.643Z,34.40
2022-08-17T18:03:41.782Z,34.40
2022-08-17T18:06:27.161Z,35.10
2022-08-17T18:09:18.073Z,34.60
2022-08-17T18:12:11.840Z,34.70
2022-08-17T18:15:00.168Z,34.70
2022-08-17T18:17:30.978Z,35.10
2022-08-17T18:20:01.747Z,35.10
2022-08-17T18:22:31.891Z,35.30
2022-08-17T18:25:01.603Z,36.10
2022-08-17T18:27:35.418Z,35.80
2022-08-17T18:30:25.963Z,36.00
2022-08-17T18:32:54.764Z,35.80
2022-08-17T18:35:30.225Z,36.20
2022-08-17T18:38:20.912Z,36.20
2022-08-17T18:41:03.182Z,36.40
2022-08-17T18:43:44.147Z,36.60
2022-08-17T18:46:29.716Z,36.70
2022-08-17T18:49:02.447Z,37.10
2022-08-17T18:51:41.536Z,37.20
2022-08-17T18:54:19.775Z,37.50
2022-08-17T18:56:55.257Z,37.60
2022-08-17T18:59:30.052Z,37.80
2022-08-17T19:02:23.170Z,37.80
2022-08-17T19:05:06.808Z,38.10
2022-08-17T19:07:39.827Z,37.70
2022-08-17T19:10:24.014Z,37.60
2022-08-17T19:13:00.221Z,37.70
2022-08-17T19:15:35.433Z,38.10
2022-08-17T19:18:15.130Z,38.60
2022-08-17T19:20:50.735Z,38.80
2022-08-17T19:23:26.344Z,39.00
2022-08-17T19:25:58.464Z,39.10
2022-08-17T19:28:32.908Z,38.80
2022-08-17T19:31:07.476Z,38.90
2022-08-17T19:33:37.462Z,38.90
2022-08-17T19:36:10.888Z,39.00
2022-08-17T19:38:50.661Z,39.20
2022-08-17T19:41:25.049Z,39.30
2022-08-17T19:44:13.011Z,39.30
2022-08-17T19:46:55.982Z,39.40
2022-08-17T19:49:41.649Z,39.60
2022-08-17T19:52:28.235Z,39.60
2022-08-17T19:55:03.348Z,39.50
2022-08-17T19:57:48.567Z,39.90
2022-08-17T20:00:19.090Z,40.30
2022-08-17T20:02:55.377Z,40.20
2022-08-17T20:05:30.076Z,40.10
2022-08-17T20:08:03.459Z,40.30
2022-08-17T20:10:40.506Z,40.20
2022-08-17T20:13:12.063Z,40.40
2022-08-17T20:16:01.607Z,40.40
2022-08-17T20:19:17.846Z,40.70
2022-08-17T20:22:13.711Z,40.70
2022-08-17T20:24:48.544Z,40.70
2022-08-17T20:27:22.698Z,40.90
2022-08-17T20:30:12.007Z,40.90
2022-08-17T20:32:53.008Z,41.00
2022-08-17T20:35:25.827Z,41.10
2022-08-17T20:37:58.973Z,41.40
2022-08-17T20:40:35.138Z,41.50
2022-08-17T20:43:51.170Z,41.40
2022-08-17T20:46:34.365Z,41.10
2022-08-17T20:49:24.809Z,41.50
2022-08-17T20:52:02.524Z,41.40
2022-08-17T20:54:46.025Z,41.70
2022-08-17T20:57:45.571Z,41.80
2022-08-17T21:00:44.954Z,42.10
2022-08-17T21:03:52.169Z,42.30
2022-08-17T21:06:24.924Z,42.50
2022-08-17T21:08:59.848Z,43.20
2022-08-17T21:11:56.793Z,42.70
2022-08-17T21:14:54.137Z,42.90
2022-08-17T21:17:39.287Z,42.90
2022-08-17T21:20:23.375Z,43.00
2022-08-17T21:23:05.160Z,42.90
2022-08-17T21:25:51.186Z,43.60
2022-08-17T21:28:30.046Z,43.50
2022-08-17T21:31:09.101Z,43.40
2022-08-17T21:33:40.772Z,43.40
2022-08-17T21:36:27.357Z,43.40
2022-08-17T21:39:02.281Z,43.70
2022-08-17T21:41:34.433Z,43.50
2022-08-17T21:44:07.066Z,43.60
2022-08-17T21:46:42.963Z,43.60
2022-08-17T21:49:19.360Z,43.50
2022-08-17T21:51:50.851Z,43.70
2022-08-17T21:54:31.717Z,43.50
2022-08-17T21:57:03.916Z,43.70
2022-08-17T21:59:35.624Z,43.70
2022-08-17T22:02:07.504Z,43.80
2022-08-17T22:04:40.049Z,43.70
2022-08-17T22:07:11.524Z,44.00
2022-08-17T22:09:43.984Z,44.00
2022-08-17T22:12:17.566Z,44.10
2022-08-17T22:14:57.171Z,44.40
2022-08-17T22:17:28.459Z,44.80
2022-08-17T22:20:05.939Z,44.40
2022-08-17T22:22:59.764Z,44.40
2022-08-17T22:25:31.016Z,44.50
2022-08-17T22:28:01.976Z,44.60
2022-08-17T22:30:36.694Z,44.70
2022-08-17T22:33:41.421Z,44.60
2022-08-17T22:36:15.411Z,44.40
2022-08-17T22:38:45.076Z,44.70
2022-08-17T22:41:37.699Z,44.70
2022-08-17T22:44:17.652Z,44.80
2022-08-17T22:46:55.245Z,45.00
2022-08-17T22:49:29.203Z,45.10
2022-08-17T22:52:32.147Z,45.20
2022-08-17T22:55:30.536Z,45.20
2022-08-17T22:58:17.187Z,45.40
2022-08-17T23:00:48.079Z,45.50
2022-08-17T23:03:19.600Z,45.50
2022-08-17T23:06:06.268Z,45.60
2022-08-17T23:08:43.122Z,45.50
2022-08-17T23:11:12.218Z,45.40
2022-08-17T23:13:41.443Z,45.50
2022-08-17T23:16:10.627Z,45.40
2022-08-17T23:18:39.621Z,45.70
2022-08-17T23:21:08.815Z,45.80
2022-08-17T23:23:43.699Z,45.70
2022-08-17T23:26:12.627Z,45.90
2022-08-17T23:28:43.608Z,45.90
2022-08-17T23:31:17.280Z,45.90
2022-08-17T23:33:47.555Z,46.00
2022-08-17T23:36:18.081Z,46.00
2022-08-17T23:38:48.631Z,46.00
2022-08-17T23:41:21.218Z,45.90
2022-08-17T23:43:52.947Z,45.90
2022-08-17T23:46:24.954Z,45.90
2022-08-17T23:48:54.314Z,45.90
2022-08-17T23:51:26.349Z,45.90
2022-08-17T23:54:05.808Z,45.90
2022-08-17T23:56:41.887Z,45.90
2022-08-17T23:59:12.349Z,45.90
